Time;durP1;ratioP1;P1;durP2;ratioP2;P2;SDS_P1;SDS_P2;PMS_P1;PMS_P2;Temp;Humidity;BMP_temperature;BMP_pressure;BME280_temperature;BME280_humidity;BME280_pressure;Samples;Min_cycle;Max_cycle;Signal;HPM_P1;HPM_P2
2023/12/08 00:01:45;;;;;;;13.00;9.10;;;1.90;99.90;;;;;;5048945;28;20049;-62
2023/12/08 00:04:11;;;;;;;14.18;8.95;;;1.90;99.90;;;;;;5049195;28;20045;-63
2023/12/08 00:06:39;;;;;;;14.13;9.35;;;2.00;99.90;;;;;;5047909;28;20138;-63
2023/12/08 00:09:05;;;;;;;15.23;9.85;;;1.90;99.90;;;;;;5049272;28;20056;-63
2023/12/08 00:11:31;;;;;;;14.27;9.20;;;1.90;99.90;;;;;;5048604;28;20048;-62
2023/12/08 00:13:57;;;;;;;12.68;9.20;;;1.90;99.90;;;;;;5030794;28;20049;-62
2023/12/08 00:16:24;;;;;;;13.10;8.15;;;1.90;99.90;;;;;;5048801;28;20045;-62
2023/12/08 00:18:50;;;;;;;11.07;7.90;;;2.00;99.90;;;;;;5031229;28;20428;-63
2023/12/08 00:21:17;;;;;;;14.85;8.68;;;2.00;99.90;;;;;;5047417;28;20430;-62
2023/12/08 00:23:44;;;;;;;11.77;7.60;;;2.00;99.90;;;;;;5032155;28;20063;-63
2023/12/08 00:26:12;;;;;;;12.05;8.43;;;2.00;99.90;;;;;;5051882;28;20151;-62
2023/12/08 00:28:38;;;;;;;14.57;10.65;;;1.90;99.90;;;;;;5034811;28;20426;-62
2023/12/08 00:31:04;;;;;;;14.90;9.20;;;1.90;99.90;;;;;;5050637;28;20045;-62
2023/12/08 00:33:31;;;;;;;13.23;9.13;;;1.90;99.90;;;;;;5034660;28;20045;-62
2023/12/08 00:35:57;;;;;;;11.57;8.68;;;2.00;99.90;;;;;;5050588;28;20052;-62
2023/12/08 00:38:24;;;;;;;13.80;8.20;;;1.90;99.90;;;;;;5052190;28;20052;-62
2023/12/08 00:40:50;;;;;;;14.30;9.48;;;1.90;99.90;;;;;;5051543;28;20588;-63
2023/12/08 00:43:16;;;;;;;14.15;8.88;;;1.90;99.90;;;;;;5052263;28;20067;-62
2023/12/08 00:45:43;;;;;;;13.23;8.55;;;1.90;99.90;;;;;;5051753;28;20489;-61
2023/12/08 00:48:10;;;;;;;14.20;9.63;;;1.90;99.90;;;;;;5051703;28;20152;-62
2023/12/08 00:50:36;;;;;;;15.90;10.50;;;1.90;99.90;;;;;;5033563;28;20708;-63
2023/12/08 00:53:02;;;;;;;14.27;9.68;;;1.90;99.90;;;;;;5033902;28;20057;-62
2023/12/08 00:55:29;;;;;;;13.95;9.23;;;1.90;99.90;;;;;;5051649;28;20044;-62
2023/12/08 00:57:55;;;;;;;;;;;1.90;99.90;;;;;;5052406;28;20052;-62
2023/12/08 01:00:21;;;;;;;14.18;9.32;;;1.90;99.90;;;;;;5033589;28;19920;-63
2023/12/08 01:02:47;;;;;;;14.52;9.93;;;1.90;99.90;;;;;;5052045;28;20045;-61
2023/12/08 01:05:14;;;;;;;13.40;10.02;;;1.90;99.90;;;;;;5051759;28;20053;-62
2023/12/08 01:07:40;;;;;;;13.85;9.07;;;1.90;99.90;;;;;;5051784;28;20052;-62
2023/12/08 01:10:07;;;;;;;;;;;1.90;99.90;;;;;;5034190;28;20067;-62
2023/12/08 01:12:33;;;;;;;15.40;9.48;;;1.90;99.90;;;;;;5051624;28;19932;-62
2023/12/08 01:14:59;;;;;;;;;;;1.90;99.90;;;;;;5051672;28;20045;-63
2023/12/08 01:17:25;;;;;;;16.88;9.57;;;1.90;99.90;;;;;;5051705;28;19929;-63
2023/12/08 01:19:52;;;;;;;15.85;9.65;;;1.90;99.90;;;;;;5050823;28;20464;-62
2023/12/08 01:22:18;;;;;;;15.68;10.30;;;1.90;99.90;;;;;;5030110;28;20064;-63
2023/12/08 01:24:44;;;;;;;13.50;8.88;;;1.90;99.90;;;;;;5039302;28;20059;-62
2023/12/08 01:27:11;;;;;;;15.27;9.10;;;1.90;99.90;;;;;;5051425;28;20049;-63
2023/12/08 01:29:37;;;;;;;14.75;9.93;;;1.90;99.90;;;;;;5051114;28;20064;-62
2023/12/08 01:32:04;;;;;;;16.65;10.48;;;1.80;99.90;;;;;;5051187;28;20052;-62
2023/12/08 01:34:30;;;;;;;13.88;11.35;;;1.90;99.90;;;;;;5050431;28;20427;-62
2023/12/08 01:36:56;;;;;;;14.57;9.68;;;1.80;99.90;;;;;;5049616;28;20052;-62
2023/12/08 01:39:22;;;;;;;15.88;10.00;;;1.90;99.90;;;;;;5049796;28;20068;-62
2023/12/08 01:41:50;;;;;;;15.23;10.00;;;1.80;99.90;;;;;;5033318;28;20045;-62
2023/12/08 01:44:17;;;;;;;13.82;9.95;;;1.90;99.90;;;;;;5051098;28;20080;-62
2023/12/08 01:46:45;;;;;;;15.35;10.38;;;1.80;99.90;;;;;;5051207;28;20456;-64
2023/12/08 01:49:12;;;;;;;15.07;9.95;;;1.80;99.90;;;;;;5049596;28;20060;-62
2023/12/08 01:51:39;;;;;;;17.80;13.05;;;1.80;99.90;;;;;;5033101;28;20394;-62
2023/12/08 01:54:06;;;;;;;17.42;10.63;;;1.90;99.90;;;;;;5050878;28;20060;-62
2023/12/08 01:56:32;;;;;;;14.77;10.13;;;2.00;99.90;;;;;;5033266;28;20049;-62
2023/12/08 01:58:59;;;;;;;15.15;10.10;;;2.00;99.90;;;;;;5033591;28;20122;-63
2023/12/08 02:01:26;;;;;;;15.45;10.05;;;1.90;99.90;;;;;;5050446;28;20060;-63
2023/12/08 02:03:52;;;;;;;18.52;11.02;;;2.00;99.90;;;;;;5050605;28;20125;-61
2023/12/08 02:06:19;;;;;;;17.80;10.68;;;1.90;99.90;;;;;;5050220;28;20049;-62
2023/12/08 02:08:49;;;;;;;15.48;10.13;;;1.90;99.90;;;;;;5050717;28;20041;-62
2023/12/08 02:11:16;;;;;;;14.68;10.00;;;1.90;99.90;;;;;;5050221;28;20061;-62
2023/12/08 02:13:43;;;;;;;16.77;11.80;;;1.90;99.90;;;;;;5050484;28;20373;-62
2023/12/08 02:16:36;;;;;;;14.50;9.98;;;1.80;99.90;;;;;;5050114;28;20045;-62
2023/12/08 02:19:06;;;;;;;15.48;9.80;;;1.80;99.90;;;;;;5032755;28;20428;-62
2023/12/08 02:21:32;;;;;;;16.35;10.05;;;1.80;99.90;;;;;;5049641;28;20484;-62
2023/12/08 02:23:58;;;;;;;15.18;11.20;;;1.80;99.90;;;;;;5032355;28;20045;-62
2023/12/08 02:26:25;;;;;;;16.83;10.70;;;1.80;99.90;;;;;;5050322;28;20057;-62
2023/12/08 02:28:51;;;;;;;17.45;11.00;;;1.90;99.90;;;;;;5050318;28;20059;-62
2023/12/08 02:31:24;;;;;;;14.43;9.90;;;1.80;99.90;;;;;;5032153;28;20450;-62
2023/12/08 02:33:53;;;;;;;16.17;10.77;;;1.80;99.90;;;;;;5049073;28;20052;-62
2023/12/08 02:36:20;;;;;;;16.98;10.70;;;1.80;99.90;;;;;;5031621;28;20049;-63
2023/12/08 02:38:50;;;;;;;14.60;11.70;;;1.80;99.90;;;;;;5050538;28;20056;-62
2023/12/08 02:41:17;;;;;;;18.67;10.70;;;1.80;99.90;;;;;;5031987;28;20068;-62
2023/12/08 02:43:43;;;;;;;14.88;9.70;;;1.80;99.90;;;;;;5049809;28;20053;-62
2023/12/08 02:46:10;;;;;;;15.70;10.55;;;1.70;99.90;;;;;;5049409;28;20481;-62
2023/12/08 02:48:36;;;;;;;16.45;11.38;;;1.60;99.90;;;;;;5049629;28;20064;-63
2023/12/08 02:51:04;;;;;;;18.30;9.70;;;1.60;99.90;;;;;;5049544;28;20265;-62
2023/12/08 02:53:30;;;;;;;14.40;10.20;;;1.60;99.90;;;;;;5032360;28;20059;-63
2023/12/08 02:55:56;;;;;;;15.65;10.65;;;1.60;99.90;;;;;;5048367;28;20496;-62
2023/12/08 02:58:23;;;;;;;17.58;10.50;;;1.50;99.90;;;;;;5049545;28;20045;-62
2023/12/08 03:00:49;;;;;;;17.65;11.00;;;1.40;99.90;;;;;;5049179;28;20052;-62
2023/12/08 03:03:15;;;;;;;16.80;10.45;;;1.40;99.90;;;;;;5050005;28;20060;-62
2023/12/08 03:05:41;;;;;;;;;;;1.30;99.90;;;;;;5049761;28;20045;-62
2023/12/08 03:08:08;;;;;;;18.95;10.65;;;1.40;99.90;;;;;;5032068;28;19953;-62
2023/12/08 03:10:34;;;;;;;17.23;10.43;;;1.30;99.90;;;;;;5031234;28;20067;-63
2023/12/08 03:13:01;;;;;;;19.75;11.68;;;1.10;99.90;;;;;;5031448;28;20341;-62
2023/12/08 03:15:27;;;;;;;18.45;11.27;;;1.10;99.90;;;;;;5049180;28;20048;-63
2023/12/08 03:17:53;;;;;;;17.08;11.43;;;1.30;99.90;;;;;;5049394;28;20053;-63
2023/12/08 03:20:20;;;;;;;15.90;10.18;;;1.20;99.90;;;;;;5048069;28;20067;-63
2023/12/08 03:22:46;;;;;;;;;;;1.10;99.90;;;;;;5049768;28;20079;-62
2023/12/08 03:25:12;;;;;;;16.20;10.38;;;1.30;99.90;;;;;;5049089;28;19920;-65
2023/12/08 03:27:39;;;;;;;17.83;11.05;;;1.20;99.90;;;;;;5031766;28;20053;-63
2023/12/08 03:30:05;;;;;;;;;;;1.20;99.90;;;;;;5031615;28;20068;-63
2023/12/08 03:32:32;;;;;;;20.58;12.38;;;1.30;99.90;;;;;;5049321;28;19924;-62
2023/12/08 03:34:59;;;;;;;17.40;11.20;;;1.20;99.90;;;;;;5048836;28;20473;-63
2023/12/08 03:37:25;;;;;;;18.80;11.15;;;1.30;99.90;;;;;;5031530;28;20068;-63
2023/12/08 03:39:54;;;;;;;18.58;11.27;;;1.30;99.90;;;;;;5049244;28;20059;-63
2023/12/08 03:42:20;;;;;;;20.05;11.68;;;1.20;99.90;;;;;;5032077;28;20053;-62
2023/12/08 03:44:47;;;;;;;17.77;11.35;;;1.30;99.90;;;;;;5049559;28;20045;-63
2023/12/08 03:47:13;;;;;;;17.90;10.80;;;1.20;99.90;;;;;;5049340;28;20056;-62
2023/12/08 03:49:39;;;;;;;18.38;11.65;;;1.20;99.90;;;;;;5048370;28;20048;-62
2023/12/08 03:52:06;;;;;;;16.65;11.38;;;1.20;99.90;;;;;;5047624;28;20115;-63
2023/12/08 03:54:32;;;;;;;18.60;11.57;;;1.20;99.90;;;;;;5031273;28;20063;-62
2023/12/08 03:56:58;;;;;;;18.50;11.63;;;1.30;99.90;;;;;;5048133;28;20342;-63
2023/12/08 03:59:25;;;;;;;19.55;11.60;;;1.30;99.90;;;;;;5033727;28;20088;-63
2023/12/08 04:01:52;;;;;;;20.42;11.80;;;1.30;99.90;;;;;;5052650;28;20065;-62
2023/12/08 04:04:19;;;;;;;19.08;11.57;;;1.10;99.90;;;;;;5052269;28;20465;-63
2023/12/08 04:06:45;;;;;;;18.88;12.07;;;1.30;99.90;;;;;;5034938;28;20053;-63
2023/12/08 04:09:11;;;;;;;43.10;14.18;;;1.30;99.90;;;;;;5050827;28;20374;-63
2023/12/08 04:11:37;;;;;;;18.50;12.68;;;1.20;99.90;;;;;;5052780;28;20048;-63
2023/12/08 04:14:04;;;;;;;19.10;12.45;;;1.30;99.90;;;;;;5052477;28;20350;-63
2023/12/08 04:16:30;;;;;;;16.73;11.57;;;1.40;99.90;;;;;;5067992;28;20060;-63
2023/12/08 04:18:56;;;;;;;18.60;11.27;;;1.40;99.90;;;;;;5052688;28;20068;-62
2023/12/08 04:21:23;;;;;;;18.92;11.18;;;1.20;99.90;;;;;;5052083;28;20056;-62
2023/12/08 04:23:49;;;;;;;20.00;11.55;;;1.30;99.90;;;;;;5052703;28;20104;-63
2023/12/08 04:26:20;;;;;;;18.73;11.07;;;1.40;99.90;;;;;;5052479;28;20071;-63
2023/12/08 04:28:46;;;;;;;16.55;11.32;;;1.40;99.90;;;;;;5052259;28;20470;-63
2023/12/08 04:31:13;;;;;;;19.98;11.25;;;1.30;99.90;;;;;;5051645;28;20462;-63
2023/12/08 04:33:39;;;;;;;18.90;11.73;;;1.30;99.90;;;;;;5052265;28;20151;-63
2023/12/08 04:36:07;;;;;;;19.40;11.40;;;1.30;99.90;;;;;;5051856;28;20068;-63
2023/12/08 04:38:33;;;;;;;21.35;12.68;;;1.40;99.90;;;;;;5052106;28;20041;-63
2023/12/08 04:40:59;;;;;;;21.88;14.35;;;1.30;99.90;;;;;;5051583;28;20403;-63
2023/12/08 04:43:26;;;;;;;20.60;11.88;;;1.20;99.90;;;;;;5051836;28;20496;-63
2023/12/08 04:45:52;;;;;;;20.65;13.45;;;1.30;99.90;;;;;;5067146;28;20407;-63
2023/12/08 04:48:18;;;;;;;20.15;12.63;;;1.20;99.90;;;;;;5031014;28;20478;-63
2023/12/08 04:50:46;;;;;;;21.15;12.13;;;1.10;99.90;;;;;;5031725;28;20042;-62
2023/12/08 04:53:12;;;;;;;19.10;11.45;;;1.20;99.90;;;;;;5031633;28;20037;-64
2023/12/08 04:55:38;;;;;;;20.08;12.40;;;1.20;99.90;;;;;;5031521;28;20068;-64
2023/12/08 04:58:05;;;;;;;20.70;11.38;;;1.20;99.90;;;;;;5031913;28;20046;-63
2023/12/08 05:00:31;;;;;;;19.23;12.38;;;1.30;99.90;;;;;;5031640;28;20260;-63
2023/12/08 05:02:57;;;;;;;20.23;12.75;;;1.20;99.90;;;;;;5031057;28;20046;-63
2023/12/08 05:05:24;;;;;;;21.20;13.95;;;1.00;99.90;;;;;;5031213;28;20069;-64
2023/12/08 05:07:50;;;;;;;19.80;13.05;;;1.10;99.90;;;;;;5031722;28;20060;-63
2023/12/08 05:10:17;;;;;;;20.90;12.02;;;1.20;99.90;;;;;;5045928;28;20056;-64
2023/12/08 05:12:44;;;;;;;20.58;12.25;;;1.20;99.90;;;;;;5031450;28;20461;-64
2023/12/08 05:15:10;;;;;;;21.05;12.40;;;1.20;99.90;;;;;;5031379;28;20068;-65
2023/12/08 05:17:36;;;;;;;19.83;13.60;;;1.00;99.90;;;;;;5063665;28;20053;-64
2023/12/08 05:20:03;;;;;;;;;;;1.10;99.90;;;;;;5030538;28;20053;-64
2023/12/08 05:22:29;;;;;;;20.55;12.73;;;1.20;99.90;;;;;;5031413;28;19928;-64
2023/12/08 05:24:56;;;;;;;21.52;12.48;;;1.00;99.90;;;;;;5063400;28;20053;-64
2023/12/08 05:27:22;;;;;;;20.08;12.48;;;1.20;99.90;;;;;;5046680;28;20045;-64
2023/12/08 05:29:48;;;;;;;19.85;13.15;;;1.10;99.90;;;;;;5031288;28;20049;-64
2023/12/08 05:32:15;;;;;;;22.30;13.95;;;1.00;99.90;;;;;;5063829;28;20064;-63
2023/12/08 05:34:41;;;;;;;18.25;11.75;;;1.20;99.90;;;;;;5030899;28;20610;-63
2023/12/08 05:37:07;;;;;;;21.95;14.10;;;1.10;99.90;;;;;;5030140;28;20389;-64
2023/12/08 05:39:34;;;;;;;21.33;12.88;;;1.10;99.90;;;;;;5046245;28;20065;-64
2023/12/08 05:42:00;;;;;;;22.25;12.63;;;0.90;99.90;;;;;;5031304;28;20052;-64
2023/12/08 05:44:27;;;;;;;;;;;0.90;99.90;;;;;;5030897;28;20461;-64
2023/12/08 05:46:53;;;;;;;20.85;11.57;;;1.10;99.90;;;;;;5063330;28;20308;-63
2023/12/08 05:49:19;;;;;;;;;;;1.10;99.90;;;;;;5029879;28;20053;-64
2023/12/08 05:51:46;;;;;;;20.13;12.00;;;1.20;99.90;;;;;;5030895;28;19921;-64
2023/12/08 05:54:12;;;;;;;20.35;13.63;;;1.00;99.90;;;;;;5062918;28;20049;-65
2023/12/08 05:56:39;;;;;;;20.65;12.40;;;1.10;99.90;;;;;;5063346;28;20192;-65
2023/12/08 05:59:05;;;;;;;20.85;12.35;;;0.90;99.90;;;;;;5029326;28;20046;-64
2023/12/08 06:01:32;;;;;;;20.25;12.90;;;1.10;99.90;;;;;;5029966;28;20502;-64
2023/12/08 06:03:58;;;;;;;23.13;12.80;;;1.10;99.90;;;;;;5029883;28;20053;-65
2023/12/08 06:06:26;;;;;;;20.98;12.85;;;0.90;99.90;;;;;;5062160;28;20045;-65
2023/12/08 06:08:53;;;;;;;21.25;13.43;;;0.90;99.90;;;;;;5027903;28;20056;-64
2023/12/08 06:11:19;;;;;;;18.77;11.85;;;1.00;99.90;;;;;;5012488;28;20072;-65
2023/12/08 06:13:45;;;;;;;21.95;12.98;;;1.00;99.90;;;;;;5029139;28;20088;-65
2023/12/08 06:16:11;;;;;;;23.58;14.80;;;1.00;99.90;;;;;;5011529;28;20037;-65
2023/12/08 06:18:38;;;;;;;21.52;12.80;;;1.10;99.90;;;;;;5028693;28;20041;-64
2023/12/08 06:21:05;;;;;;;22.40;13.38;;;0.70;99.90;;;;;;5027401;28;20057;-64
2023/12/08 06:23:31;;;;;;;19.33;12.65;;;0.90;99.90;;;;;;5028771;28;20053;-64
2023/12/08 06:25:57;;;;;;;21.80;12.25;;;0.70;99.90;;;;;;5027887;28;20053;-63
2023/12/08 06:28:23;;;;;;;20.42;12.32;;;0.70;99.90;;;;;;5025509;28;20488;-64
2023/12/08 06:30:50;;;;;;;23.98;13.15;;;1.00;99.90;;;;;;5028911;28;20500;-64
2023/12/08 06:33:16;;;;;;;;;;;0.70;99.90;;;;;;5029266;28;20057;-64
2023/12/08 06:35:42;;;;;;;20.83;13.15;;;0.80;99.90;;;;;;5044630;28;19952;-64
2023/12/08 06:38:10;;;;;;;22.00;13.70;;;0.70;99.90;;;;;;5028793;28;20320;-64
2023/12/08 06:40:36;;;;;;;20.63;13.35;;;1.00;99.90;;;;;;5028136;28;20505;-65
2023/12/08 06:43:03;;;;;;;23.67;13.88;;;1.00;99.90;;;;;;5028512;28;20294;-64
2023/12/08 06:45:30;;;;;;;20.35;13.52;;;0.80;99.90;;;;;;5019705;28;20061;-63
2023/12/08 06:47:56;;;;;;;20.83;13.35;;;0.80;99.90;;;;;;5029757;28;20057;-64
2023/12/08 06:50:22;;;;;;;;;;;0.80;99.90;;;;;;5051070;28;20056;-65
2023/12/08 06:52:51;;;;;;;23.48;14.27;;;0.80;99.90;;;;;;5037047;28;19950;-64
2023/12/08 06:55:20;;;;;;;22.95;12.52;;;0.90;99.90;;;;;;5064829;28;20057;-64
2023/12/08 06:57:47;;;;;;;23.38;13.57;;;1.00;99.90;;;;;;5030323;28;20045;-64
2023/12/08 07:00:14;;;;;;;22.85;13.18;;;1.00;99.90;;;;;;5031503;28;20063;-65
2023/12/08 07:02:40;;;;;;;21.40;14.05;;;1.00;99.90;;;;;;5049212;28;20516;-63
2023/12/08 07:05:07;;;;;;;;;;;0.80;99.90;;;;;;5019613;28;20068;-63
2023/12/08 07:07:33;;;;;;;132.85;23.08;;;0.80;99.90;;;;;;5048644;28;20245;-64
2023/12/08 07:09:59;;;;;;;22.98;13.32;;;0.90;99.90;;;;;;5049509;28;20053;-64
2023/12/08 07:12:26;;;;;;;21.77;12.93;;;1.00;99.90;;;;;;5030428;28;20080;-65
2023/12/08 07:14:52;;;;;;;;;;;1.20;99.90;;;;;;5028923;28;20037;-64
2023/12/08 07:17:19;;;;;;;26.17;13.38;;;1.10;99.90;;;;;;5066145;28;19921;-64
2023/12/08 07:19:45;;;;;;;20.88;12.82;;;1.20;99.90;;;;;;5067461;28;20064;-64
2023/12/08 07:22:11;;;;;;;;;;;0.90;99.90;;;;;;5051377;28;20049;-64
2023/12/08 07:24:40;;;;;;;23.08;12.23;;;1.40;99.90;;;;;;5066338;28;19936;-65
2023/12/08 07:27:06;;;;;;;21.65;12.80;;;1.20;99.90;;;;;;5033134;28;20057;-64
2023/12/08 07:29:32;;;;;;;22.85;13.32;;;0.90;99.90;;;;;;5066745;28;20143;-64
2023/12/08 07:31:59;;;;;;;25.70;14.13;;;1.20;99.90;;;;;;5066748;28;20056;-64
2023/12/08 07:34:25;;;;;;;22.30;13.40;;;0.90;99.90;;;;;;5035967;28;20083;-64
2023/12/08 07:36:52;;;;;;;22.42;13.10;;;1.00;99.90;;;;;;5070414;28;20456;-65
2023/12/08 07:39:18;;;;;;;22.45;13.13;;;0.90;99.90;;;;;;5037772;28;20307;-65
2023/12/08 07:41:45;;;;;;;20.75;12.68;;;0.90;99.90;;;;;;5070832;28;20047;-65
2023/12/08 07:44:11;;;;;;;19.40;12.45;;;1.10;99.90;;;;;;5037019;28;20052;-65
2023/12/08 07:46:38;;;;;;;21.05;13.13;;;1.10;99.90;;;;;;5037102;28;20084;-64
2023/12/08 07:49:04;;;;;;;;;;;1.00;99.90;;;;;;5054946;28;20069;-65
2023/12/08 07:51:32;;;;;;;24.92;14.10;;;1.20;99.90;;;;;;5037015;28;20020;-64
2023/12/08 07:54:00;;;;;;;21.25;13.45;;;0.90;99.90;;;;;;5037201;28;20052;-65
2023/12/08 07:56:26;;;;;;;22.08;12.85;;;1.00;99.90;;;;;;5036842;28;20469;-63
2023/12/08 07:58:53;;;;;;;24.65;13.90;;;1.00;99.90;;;;;;5036951;28;20063;-63
2023/12/08 08:01:19;;;;;;;19.95;12.10;;;1.10;99.90;;;;;;5053960;28;20079;-63
2023/12/08 08:03:45;;;;;;;23.25;14.25;;;0.90;99.90;;;;;;5037418;28;20063;-64
2023/12/08 08:06:12;;;;;;;22.15;13.35;;;0.90;99.90;;;;;;5036664;28;20056;-64
2023/12/08 08:08:38;;;;;;;;;;;1.20;99.90;;;;;;5036940;28;20049;-64
2023/12/08 08:11:04;;;;;;;20.45;12.10;;;1.10;99.90;;;;;;5069251;28;19924;-63
2023/12/08 08:13:31;;;;;;;21.55;12.70;;;1.20;99.90;;;;;;5037156;28;20051;-64
2023/12/08 08:15:57;;;;;;;21.70;13.25;;;1.10;99.90;;;;;;5042600;28;20048;-64
2023/12/08 08:18:23;;;;;;;22.83;13.30;;;1.10;99.90;;;;;;5036403;28;20045;-65
2023/12/08 08:20:50;;;;;;;22.02;14.43;;;1.10;99.90;;;;;;5036523;28;20389;-64
2023/12/08 08:23:16;;;;;;;;;;;1.20;99.90;;;;;;5059347;28;20045;-64
2023/12/08 08:25:43;;;;;;;24.17;12.77;;;1.20;99.90;;;;;;5045060;28;19974;-64
2023/12/08 08:28:09;;;;;;;22.02;12.57;;;1.20;99.90;;;;;;5038073;28;20052;-64
2023/12/08 08:30:37;;;;;;;20.13;11.88;;;1.10;99.90;;;;;;5054229;28;20499;-64
2023/12/08 08:33:04;;;;;;;21.25;12.90;;;1.10;99.90;;;;;;5036155;28;20079;-64
2023/12/08 08:35:30;;;;;;;21.15;12.88;;;1.10;99.90;;;;;;5052747;28;20049;-63
2023/12/08 08:37:56;;;;;;;22.27;12.52;;;1.00;99.90;;;;;;5036025;28;20362;-64
2023/12/08 08:40:23;;;;;;;23.50;13.13;;;1.00;99.90;;;;;;5070918;28;20368;-63
2023/12/08 08:42:49;;;;;;;22.83;13.82;;;1.20;99.90;;;;;;5043947;28;20450;-64
2023/12/08 08:45:16;;;;;;;21.42;13.85;;;1.10;99.90;;;;;;5068878;28;20064;-64
2023/12/08 08:47:42;;;;;;;22.90;12.77;;;1.10;99.90;;;;;;5035401;28;20045;-64
2023/12/08 08:50:09;;;;;;;22.92;13.10;;;1.30;99.90;;;;;;5019036;28;20057;-64
2023/12/08 08:52:35;;;;;;;20.27;13.18;;;1.10;99.90;;;;;;5068793;28;20049;-64
2023/12/08 08:55:03;;;;;;;21.77;12.65;;;1.10;99.90;;;;;;5035237;28;20045;-64
2023/12/08 08:57:30;;;;;;;21.05;12.68;;;1.40;99.90;;;;;;5035151;28;20082;-63
2023/12/08 08:59:57;;;;;;;21.35;13.15;;;1.10;99.90;;;;;;5035695;28;20068;-64
2023/12/08 09:02:23;;;;;;;23.67;14.07;;;1.30;99.90;;;;;;5068719;28;20044;-64
2023/12/08 09:04:49;;;;;;;22.90;13.25;;;1.10;99.90;;;;;;5035336;28;20059;-64
2023/12/08 09:07:16;;;;;;;171.00;26.27;;;1.40;99.90;;;;;;5068400;28;20405;-63
2023/12/08 09:09:42;;;;;;;23.15;13.48;;;1.50;99.90;;;;;;5038627;28;20106;-63
2023/12/08 09:12:08;;;;;;;24.95;15.05;;;1.70;99.90;;;;;;5045696;28;20052;-64
2023/12/08 09:14:36;;;;;;;24.30;14.73;;;1.50;99.90;;;;;;5062208;28;21120;-63
2023/12/08 09:17:05;;;;;;;25.70;15.50;;;1.60;99.90;;;;;;5044522;28;20107;-64
2023/12/08 09:19:35;;;;;;;22.65;13.55;;;1.70;99.90;;;;;;5038936;28;20128;-63
2023/12/08 09:22:01;;;;;;;25.60;14.23;;;1.50;99.90;;;;;;5044463;28;20045;-62
2023/12/08 09:24:27;;;;;;;24.15;15.00;;;1.40;99.90;;;;;;5043078;28;20074;-63
2023/12/08 09:26:54;;;;;;;23.33;14.20;;;1.60;99.90;;;;;;5045016;28;20044;-63
2023/12/08 09:29:21;;;;;;;22.90;13.90;;;1.50;99.90;;;;;;5045518;28;20144;-63
2023/12/08 09:31:47;;;;;;;24.65;14.45;;;1.70;99.90;;;;;;5061802;28;20055;-64
2023/12/08 09:34:14;;;;;;;23.15;14.50;;;1.70;99.90;;;;;;5045944;28;20055;-63
2023/12/08 09:36:40;;;;;;;22.55;14.38;;;1.60;99.90;;;;;;5043188;28;20063;-63
2023/12/08 09:39:08;;;;;;;27.08;16.02;;;1.50;99.90;;;;;;5063312;28;20060;-63
2023/12/08 09:41:39;;;;;;;25.38;14.13;;;1.70;99.90;;;;;;5044118;28;20059;-63
2023/12/08 09:44:12;;;;;;;25.55;15.95;;;1.50;99.90;;;;;;5052233;28;20353;-63
2023/12/08 09:46:46;;;;;;;26.15;14.80;;;1.50;99.90;;;;;;5068997;28;20728;-63
2023/12/08 09:49:30;;;;;;;26.15;14.55;;;1.60;99.90;;;;;;5034921;28;20507;-63
2023/12/08 09:51:57;;;;;;;24.90;14.82;;;1.70;99.90;;;;;;5035090;28;20049;-63
2023/12/08 09:54:23;;;;;;;27.55;15.85;;;1.50;99.90;;;;;;5052450;28;20061;-63
2023/12/08 09:56:54;;;;;;;29.05;15.70;;;1.50;99.90;;;;;;5031648;28;20061;-63
2023/12/08 09:59:29;;;;;;;27.50;15.45;;;1.70;99.90;;;;;;5048224;28;20061;-63
2023/12/08 10:01:55;;;;;;;27.20;15.95;;;1.60;99.90;;;;;;5032437;28;20061;-63
2023/12/08 10:04:23;;;;;;;27.77;15.00;;;1.50;99.90;;;;;;5018932;28;20049;-63
2023/12/08 10:06:50;;;;;;;27.38;15.27;;;1.80;99.90;;;;;;5066472;28;20103;-63
2023/12/08 10:09:17;;;;;;;30.73;15.95;;;1.90;99.90;;;;;;5051660;28;20045;-63
2023/12/08 10:11:44;;;;;;;29.98;16.15;;;1.80;99.90;;;;;;5049706;28;20062;-63
2023/12/08 10:14:15;;;;;;;38.60;17.45;;;1.90;99.90;;;;;;5050312;28;20056;-63
2023/12/08 10:16:46;;;;;;;30.73;17.40;;;1.90;99.90;;;;;;5033076;28;20486;-63
2023/12/08 10:19:13;;;;;;;32.78;16.98;;;2.10;99.90;;;;;;5033014;28;20457;-62
2023/12/08 10:21:39;;;;;;;34.58;16.70;;;2.10;99.90;;;;;;5067089;28;20159;-64
2023/12/08 10:24:08;;;;;;;34.38;18.60;;;2.10;99.90;;;;;;5050929;28;20048;-63
2023/12/08 10:26:34;;;;;;;32.63;17.52;;;2.10;99.90;;;;;;5032613;28;20496;-63
2023/12/08 10:29:01;;;;;;;41.13;17.23;;;2.10;99.90;;;;;;5050121;28;20049;-63
2023/12/08 10:31:28;;;;;;;31.15;16.95;;;2.00;99.90;;;;;;5051250;28;20063;-63
2023/12/08 10:33:55;;;;;;;31.25;16.02;;;1.80;99.90;;;;;;5047909;28;20050;-63
2023/12/08 10:36:22;;;;;;;31.90;16.33;;;2.10;99.90;;;;;;5064937;28;20045;-63
2023/12/08 10:38:49;;;;;;;29.63;17.25;;;2.10;99.90;;;;;;5034037;28;20037;-63
2023/12/08 10:41:18;;;;;;;30.70;16.38;;;2.20;99.90;;;;;;5051057;28;20060;-63
2023/12/08 10:43:45;;;;;;;32.92;17.30;;;2.10;99.90;;;;;;5033487;28;20059;-63
2023/12/08 10:46:12;;;;;;;32.97;18.05;;;1.90;99.90;;;;;;5050165;28;20376;-63
2023/12/08 10:48:39;;;;;;;31.75;16.27;;;2.20;99.90;;;;;;5049519;28;20763;-63
2023/12/08 10:51:13;;;;;;;38.88;19.33;;;2.20;99.90;;;;;;5030139;28;20070;-63
2023/12/08 10:53:40;;;;;;;34.20;18.90;;;2.20;99.90;;;;;;5032870;28;20382;-63
2023/12/08 10:56:13;;;;;;;35.53;17.52;;;2.20;99.90;;;;;;5050577;28;20140;-63
2023/12/08 10:58:44;;;;;;;32.75;18.13;;;2.10;99.90;;;;;;5031056;28;20071;-63
2023/12/08 11:01:14;;;;;;;33.50;16.98;;;2.10;99.90;;;;;;5030783;28;20049;-63
2023/12/08 11:03:42;;;;;;;34.00;18.20;;;2.10;99.90;;;;;;5049515;28;20057;-63
2023/12/08 11:06:30;;;;;;;34.20;17.70;;;2.30;99.90;;;;;;5031954;28;20057;-63
2023/12/08 11:09:00;;;;;;;35.65;17.88;;;2.20;99.90;;;;;;5062602;28;20433;-63
2023/12/08 11:11:28;;;;;;;35.42;18.75;;;2.40;99.90;;;;;;5050636;28;20049;-62
2023/12/08 11:14:17;;;;;;;34.22;18.67;;;2.40;99.90;;;;;;5049134;28;20064;-64
2023/12/08 11:16:50;;;;;;;33.28;17.23;;;2.40;99.90;;;;;;5034043;28;20051;-63
2023/12/08 11:19:19;;;;;;;34.30;18.17;;;2.50;99.90;;;;;;5048973;28;20045;-64
2023/12/08 11:21:46;;;;;;;32.88;18.00;;;2.50;99.90;;;;;;5032997;28;20049;-63
2023/12/08 11:24:13;;;;;;;37.17;20.38;;;2.50;99.90;;;;;;5028087;28;20052;-63
2023/12/08 11:26:53;;;;;;;33.60;18.00;;;2.60;99.90;;;;;;5032186;28;20052;-63
2023/12/08 11:29:40;;;;;;;35.97;18.40;;;2.50;99.90;;;;;;5050368;28;20049;-63
2023/12/08 11:32:36;;;;;;;40.05;19.75;;;2.70;99.90;;;;;;5048761;28;20045;-63
2023/12/08 11:35:08;;;;;;;41.22;20.45;;;2.70;99.90;;;;;;5049592;28;20056;-63
2023/12/08 11:37:34;;;;;;;38.40;19.10;;;2.60;99.90;;;;;;5032125;28;20053;-63
2023/12/08 11:40:07;;;;;;;41.25;19.13;;;3.00;99.90;;;;;;5032429;28;20045;-63
2023/12/08 11:42:34;;;;;;;39.88;19.40;;;3.00;99.90;;;;;;5047067;28;20560;-63
2023/12/08 11:45:00;;;;;;;35.00;18.58;;;3.00;99.90;;;;;;5032096;28;20346;-66
2023/12/08 11:47:28;;;;;;;42.20;21.95;;;3.00;99.90;;;;;;5064953;28;20504;-64
2023/12/08 11:49:55;;;;;;;264.02;37.08;;;3.10;99.90;;;;;;5032563;28;20060;-63
2023/12/08 11:52:25;;;;;;;42.03;20.73;;;3.10;99.90;;;;;;5049722;28;20370;-63
2023/12/08 11:55:16;;;;;;;39.28;19.20;;;3.00;99.90;;;;;;5024418;28;20473;-63
2023/12/08 11:57:54;;;;;;;44.22;19.77;;;3.30;99.90;;;;;;5047920;28;20052;-63
2023/12/08 12:00:21;;;;;;;;;;;3.30;99.90;;;;;;5050371;28;20465;-63
2023/12/08 12:02:49;;;;;;;34.72;17.63;;;3.40;99.90;;;;;;5050088;28;19924;-64
2023/12/08 12:05:16;;;;;;;34.03;18.65;;;3.10;99.90;;;;;;5028627;28;20087;-65
2023/12/08 12:07:45;;;;;;;34.13;17.77;;;3.10;99.90;;;;;;5037781;28;20224;-66
2023/12/08 12:10:12;;;;;;;34.13;17.45;;;3.20;99.90;;;;;;5032354;28;20056;-64
2023/12/08 12:12:49;;;;;;;31.67;16.42;;;3.30;99.90;;;;;;5031583;28;20096;-64
2023/12/08 12:15:19;;;;;;;34.97;18.05;;;3.40;99.90;;;;;;5049400;28;20491;-64
2023/12/08 12:17:46;;;;;;;34.72;16.60;;;3.20;99.90;;;;;;5048788;28;20060;-65
2023/12/08 12:20:13;;;;;;;30.90;17.17;;;3.60;99.90;;;;;;5034251;28;20464;-64
2023/12/08 12:22:39;;;;;;;29.40;16.17;;;3.30;99.90;;;;;;5052385;28;20067;-63
2023/12/08 12:25:10;;;;;;;32.47;16.50;;;3.30;99.90;;;;;;5048005;28;20052;-64
2023/12/08 12:27:41;;;;;;;29.42;15.80;;;3.60;99.90;;;;;;5053261;28;20460;-64
2023/12/08 12:30:09;;;;;;;32.88;16.13;;;3.60;99.90;;;;;;5035626;28;20047;-64
2023/12/08 12:32:39;;;;;;;39.95;21.52;;;3.30;99.90;;;;;;5069304;28;20040;-64
2023/12/08 12:35:07;;;;;;;35.78;18.95;;;3.60;99.90;;;;;;5034953;28;20041;-63
2023/12/08 12:37:34;;;;;;;33.25;17.98;;;3.50;99.90;;;;;;5068653;28;20041;-64
2023/12/08 12:40:01;;;;;;;30.83;16.15;;;3.40;99.90;;;;;;5035616;28;20132;-63
2023/12/08 12:42:27;;;;;;;27.80;16.70;;;3.30;99.90;;;;;;5068458;28;20055;-65
2023/12/08 12:44:53;;;;;;;32.17;16.50;;;3.60;99.90;;;;;;5035196;28;20377;-65